createdAt,value
2023-05-19T00:04:02.319Z,96905.38
2023-05-19T00:06:33.677Z,96905.09
2023-05-19T00:13:21.518Z,96894.34
2023-05-19T00:20:07.737Z,96893.31
2023-05-19T00:22:37.233Z,96895.19
2023-05-19T00:29:25.090Z,96894.66
2023-05-19T00:31:54.232Z,96888.00
2023-05-19T00:38:49.518Z,96888.00
2023-05-19T00:41:18.925Z,96885.41
2023-05-19T00:43:47.915Z,96884.88
2023-05-19T00:50:36.484Z,96889.25
2023-05-19T00:53:05.792Z,96876.34
2023-05-19T01:04:35.138Z,96879.19
2023-05-19T01:07:05.160Z,96882.22
2023-05-19T01:09:34.354Z,96882.84
2023-05-19T01:16:23.675Z,96880.53
2023-05-19T01:19:02.201Z,96884.28
2023-05-19T01:26:19.824Z,96877.66
2023-05-19T01:29:36.322Z,96883.06
2023-05-19T01:32:09.072Z,96878.56
2023-05-19T01:34:42.401Z,96880.53
2023-05-19T01:41:29.826Z,96878.75
2023-05-19T01:43:59.556Z,96873.47
2023-05-19T01:50:49.025Z,96871.13
2023-05-19T01:53:18.275Z,96871.97
2023-05-19T02:00:12.266Z,96861.53
2023-05-19T02:07:14.137Z,96864.66
2023-05-19T02:09:50.721Z,96856.78
2023-05-19T02:16:36.137Z,96846.84
2023-05-19T02:19:05.453Z,96854.88
2023-05-19T02:25:57.446Z,96856.84
2023-05-19T02:28:28.812Z,96856.78
2023-05-19T02:30:58.003Z,96857.13
2023-05-19T02:33:28.032Z,96852.25
2023-05-19T02:35:57.018Z,96854.13
2023-05-19T02:38:29.177Z,96854.13
2023-05-19T02:40:59.609Z,96853.28
2023-05-19T02:47:47.528Z,96842.69
2023-05-19T02:50:16.861Z,96846.78
2023-05-19T02:57:06.052Z,96834.94
2023-05-19T02:59:35.464Z,96830.63
2023-05-19T03:06:30.477Z,96827.94
2023-05-19T03:13:25.739Z,96832.63
2023-05-19T03:15:58.106Z,96827.41
2023-05-19T03:22:46.038Z,96823.16
2023-05-19T03:25:16.270Z,96822.09
2023-05-19T03:32:06.307Z,96822.09
2023-05-19T03:34:35.872Z,96825.41
2023-05-19T03:37:05.083Z,96825.56
2023-05-19T03:39:34.175Z,96830.97
2023-05-19T03:42:03.368Z,96828.09
2023-05-19T03:44:32.362Z,96835.78
2023-05-19T03:47:01.581Z,96826.56
2023-05-19T03:49:32.186Z,96827.25
2023-05-19T03:52:03.635Z,96831.09
2023-05-19T03:58:52.006Z,96826.69
2023-05-19T04:01:21.410Z,96831.16
2023-05-19T04:08:10.596Z,96825.16
2023-05-19T04:10:40.006Z,96827.63
2023-05-19T04:17:35.107Z,96829.38
2023-05-19T04:20:06.286Z,96839.91
2023-05-19T04:22:35.772Z,96836.50
2023-05-19T04:25:08.041Z,96835.38
2023-05-19T04:27:39.232Z,96833.03
2023-05-19T04:34:20.281Z,96829.81
2023-05-19T04:36:51.666Z,96833.78
2023-05-19T04:43:30.072Z,96835.91
2023-05-19T04:45:59.890Z,96841.03
2023-05-19T04:51:43.129Z,96840.38
2023-05-19T04:58:31.906Z,96848.25
2023-05-19T05:09:20.396Z,96845.78
2023-05-19T05:11:50.087Z,96850.09
2023-05-19T05:18:47.342Z,96853.28
2023-05-19T05:21:17.191Z,96845.16
2023-05-19T05:23:46.900Z,96856.19
2023-05-19T05:26:19.919Z,96856.72
2023-05-19T05:28:49.287Z,96862.22
2023-05-19T05:31:18.381Z,96863.44
2023-05-19T05:33:50.357Z,96861.78
2023-05-19T05:36:19.644Z,96864.19
2023-05-19T05:38:49.247Z,96855.63
2023-05-19T05:41:18.553Z,96857.75
2023-05-19T05:43:47.846Z,96858.66
2023-05-19T05:46:17.231Z,96866.66
2023-05-19T05:48:46.750Z,96868.16
2023-05-19T05:51:18.205Z,96866.00
2023-05-19T05:53:53.849Z,96865.63
2023-05-19T06:05:06.064Z,96874.44
2023-05-19T06:07:38.172Z,96861.88
2023-05-19T06:14:25.004Z,96872.59
2023-05-19T06:16:56.051Z,96882.19
2023-05-19T06:19:26.397Z,96881.44
2023-05-19T06:22:01.813Z,96872.97
2023-05-19T06:28:51.003Z,96890.94
2023-05-19T06:35:40.093Z,96897.19
2023-05-19T06:38:09.595Z,96889.94
2023-05-19T06:45:00.562Z,96901.47
2023-05-19T06:47:30.670Z,96898.66
2023-05-19T06:50:00.456Z,96904.72
2023-05-19T06:56:41.970Z,96901.75
2023-05-19T06:59:12.082Z,96897.16
2023-05-19T07:06:02.316Z,96908.31
2023-05-19T07:08:31.392Z,96899.53
2023-05-19T07:15:19.246Z,96893.53
2023-05-19T07:22:07.950Z,96892.94
2023-05-19T07:24:37.219Z,96876.72
2023-05-19T07:31:19.138Z,96874.50
2023-05-19T07:33:48.336Z,96875.63
2023-05-19T07:39:21.403Z,96869.81
2023-05-19T07:46:09.287Z,96874.13
2023-05-19T07:48:39.108Z,96867.28
2023-05-19T07:51:10.561Z,96862.13
2023-05-19T07:53:39.974Z,96865.63
2023-05-19T07:56:10.802Z,96856.72
2023-05-19T08:07:41.071Z,96849.88
2023-05-19T08:10:11.295Z,96847.97
2023-05-19T08:17:00.585Z,96842.91
2023-05-19T08:19:29.868Z,96847.59
2023-05-19T08:22:01.624Z,96851.69
2023-05-19T08:24:31.227Z,96843.19
2023-05-19T08:27:00.342Z,96839.66
2023-05-19T08:29:29.566Z,96847.38
2023-05-19T08:32:00.681Z,96848.03
2023-05-19T08:34:30.097Z,96856.41
2023-05-19T08:37:00.011Z,96856.00
2023-05-19T08:39:29.392Z,96851.50
2023-05-19T08:42:00.750Z,96850.56
2023-05-19T08:44:31.375Z,96841.75
2023-05-19T08:47:05.388Z,96848.16
2023-05-19T08:49:35.599Z,96851.19
2023-05-19T08:52:10.535Z,96847.72
2023-05-19T08:54:45.976Z,96850.75
2023-05-19T08:57:15.888Z,96849.50
2023-05-19T08:59:45.492Z,96849.44
2023-05-19T09:02:16.651Z,96851.31
2023-05-19T09:04:48.306Z,96851.97
2023-05-19T09:07:18.010Z,96850.38
2023-05-19T09:09:47.192Z,96852.28
2023-05-19T09:12:16.699Z,96846.53
2023-05-19T09:14:47.206Z,96849.94
2023-05-19T09:17:19.287Z,96843.03
2023-05-19T09:19:49.719Z,96846.31
2023-05-19T09:22:21.167Z,96848.47
2023-05-19T09:24:50.361Z,96836.63
2023-05-19T09:27:24.577Z,96847.72
2023-05-19T09:29:54.800Z,96848.41
2023-05-19T09:32:28.734Z,96850.41
2023-05-19T09:34:59.356Z,96841.88
2023-05-19T09:37:30.471Z,96841.34
2023-05-19T09:40:01.721Z,96851.34
2023-05-19T09:42:31.020Z,96850.31
2023-05-19T09:45:04.098Z,96848.16
2023-05-19T09:47:38.579Z,96852.13
2023-05-19T09:50:10.815Z,96851.00
2023-05-19T09:52:41.215Z,96837.22
2023-05-19T09:55:12.464Z,96844.59
2023-05-19T09:57:42.196Z,96839.16
2023-05-19T10:00:19.257Z,96834.66
2023-05-19T10:02:51.360Z,96834.75
2023-05-19T10:05:21.733Z,96841.56
2023-05-19T10:07:52.896Z,96836.19
2023-05-19T10:10:23.516Z,96838.69
2023-05-19T10:12:53.217Z,96830.63
2023-05-19T10:15:23.254Z,96832.03
2023-05-19T10:17:54.524Z,96838.47
2023-05-19T10:20:26.543Z,96826.06
2023-05-19T10:22:58.103Z,96829.13
2023-05-19T10:25:29.751Z,96826.56
2023-05-19T10:28:03.151Z,96821.06
2023-05-19T10:30:37.567Z,96809.63
2023-05-19T10:33:14.202Z,96773.09
2023-05-19T10:36:11.499Z,96823.06
2023-05-19T10:43:09.106Z,96817.63
2023-05-19T10:50:00.238Z,96808.53
2023-05-19T10:52:33.586Z,96806.91
2023-05-19T10:59:45.339Z,96796.97
2023-05-19T11:02:41.151Z,96800.09
2023-05-19T11:09:40.008Z,96802.69
2023-05-19T11:12:12.763Z,96786.34
2023-05-19T11:19:02.806Z,96804.34
2023-05-19T11:21:45.264Z,96802.88
2023-05-19T11:24:38.262Z,96796.19
2023-05-19T11:27:28.724Z,96791.09
2023-05-19T11:34:11.753Z,96786.28
2023-05-19T11:41:03.317Z,96792.00
2023-05-19T11:43:36.409Z,96797.50
2023-05-19T11:50:26.304Z,96789.69
2023-05-19T11:52:57.640Z,96793.66
2023-05-19T11:59:53.387Z,96792.56
2023-05-19T12:02:28.486Z,96787.59
2023-05-19T12:05:01.415Z,96789.56
2023-05-19T12:11:45.692Z,96777.41
2023-05-19T12:18:40.533Z,96770.00
2023-05-19T12:25:36.539Z,96773.50
2023-05-19T12:28:07.402Z,96776.66
2023-05-19T12:30:37.442Z,96774.75
2023-05-19T12:37:25.353Z,96768.84
2023-05-19T12:39:57.012Z,96771.94
2023-05-19T12:46:47.736Z,96764.03
2023-05-19T12:49:18.676Z,96764.91
2023-05-19T12:56:16.665Z,96757.97
2023-05-19T13:07:13.668Z,96733.25
2023-05-19T13:09:46.429Z,96762.44
2023-05-19T13:16:38.322Z,96750.00
2023-05-19T13:23:20.731Z,96742.31
2023-05-19T13:25:50.036Z,96750.44
2023-05-19T13:32:39.034Z,96736.31
2023-05-19T13:35:09.339Z,96738.84
2023-05-19T13:42:00.271Z,96728.88
2023-05-19T13:48:56.829Z,96728.56
2023-05-19T13:51:31.587Z,96717.50
2023-05-19T13:58:17.375Z,96711.09
2023-05-19T14:00:48.621Z,96715.81
2023-05-19T14:07:39.546Z,96712.00
2023-05-19T14:10:11.302Z,96706.81
2023-05-19T14:12:59.549Z,96714.28
2023-05-19T14:15:32.837Z,96715.97
2023-05-19T14:18:02.791Z,96707.78
2023-05-19T14:20:34.558Z,96720.44
2023-05-19T14:23:05.769Z,96712.66
2023-05-19T14:25:35.245Z,96708.06
2023-05-19T14:28:04.874Z,96709.59
2023-05-19T14:30:34.358Z,96699.59
2023-05-19T14:33:03.904Z,96709.56
2023-05-19T14:35:33.668Z,96706.28
2023-05-19T14:38:10.151Z,96702.88
2023-05-19T14:44:45.500Z,96702.31
2023-05-19T14:47:15.049Z,96697.97
2023-05-19T14:54:04.393Z,96704.31
2023-05-19T14:56:34.112Z,96701.97
2023-05-19T15:03:24.372Z,96709.38
2023-05-19T15:05:53.938Z,96691.94
2023-05-19T15:08:23.841Z,96715.91
2023-05-19T15:15:01.157Z,96715.38
2023-05-19T15:17:31.799Z,96718.94
2023-05-19T15:24:19.746Z,96715.78
2023-05-19T15:26:49.145Z,96723.16
2023-05-19T15:33:37.937Z,96708.78
2023-05-19T15:36:08.083Z,96701.63
2023-05-19T15:38:41.751Z,96713.19
2023-05-19T15:45:23.106Z,96714.00
2023-05-19T15:47:52.620Z,96707.19
2023-05-19T15:54:41.951Z,96709.84
2023-05-19T15:57:11.562Z,96703.19
2023-05-19T15:59:41.170Z,96708.69
2023-05-19T16:02:12.364Z,96712.69
2023-05-19T16:04:42.018Z,96700.03
2023-05-19T16:07:11.212Z,96698.97
2023-05-19T16:09:41.945Z,96708.41
2023-05-19T16:12:11.351Z,96695.78
2023-05-19T16:14:40.462Z,96706.53
2023-05-19T16:17:12.101Z,96706.53
2023-05-19T16:19:41.709Z,96717.53
2023-05-19T16:22:10.693Z,96712.19
2023-05-19T16:24:41.636Z,96703.69
2023-05-19T16:27:10.842Z,96710.75
2023-05-19T16:29:40.634Z,96705.75
2023-05-19T16:36:23.010Z,96705.88
2023-05-19T16:38:52.364Z,96704.13
2023-05-19T16:45:47.242Z,96689.06
2023-05-19T16:48:16.695Z,96691.78
2023-05-19T16:54:57.795Z,96684.94
2023-05-19T16:57:27.201Z,96687.38
2023-05-19T16:59:56.476Z,96701.03
2023-05-19T17:11:29.328Z,96698.31
2023-05-19T17:13:58.733Z,96700.97
2023-05-19T17:20:46.596Z,96695.69
2023-05-19T17:23:15.786Z,96697.75
2023-05-19T17:25:44.981Z,96706.75
2023-05-19T17:28:15.820Z,96699.94
2023-05-19T17:30:45.219Z,96701.53
2023-05-19T17:33:14.404Z,96695.47
2023-05-19T17:35:43.506Z,96694.91
2023-05-19T17:38:12.704Z,96709.88
2023-05-19T17:40:42.161Z,96698.78
2023-05-19T17:47:31.302Z,96701.63
2023-05-19T17:50:00.282Z,96709.09
2023-05-19T17:56:48.958Z,96707.22
2023-05-19T17:59:18.795Z,96686.28
2023-05-19T18:10:41.887Z,96699.59
2023-05-19T18:17:36.796Z,96692.22
2023-05-19T18:20:07.242Z,96690.59
2023-05-19T18:26:56.422Z,96681.47
2023-05-19T18:29:25.721Z,96678.06
2023-05-19T18:31:54.852Z,96679.59
2023-05-19T18:34:24.248Z,96675.03
2023-05-19T18:36:53.312Z,96689.63
2023-05-19T18:39:22.402Z,96676.53
2023-05-19T18:41:51.601Z,96684.34
2023-05-19T18:44:22.127Z,96693.09
2023-05-19T18:46:51.329Z,96689.22
2023-05-19T18:53:35.299Z,96690.94
2023-05-19T18:56:05.611Z,96692.69
2023-05-19T19:02:49.935Z,96709.91
2023-05-19T19:05:19.477Z,96705.22
2023-05-19T19:11:38.373Z,96702.06
2023-05-19T19:18:34.788Z,96715.28
2023-05-19T19:21:06.050Z,96729.84
2023-05-19T19:27:53.733Z,96722.84
2023-05-19T19:30:22.927Z,96729.03
2023-05-19T19:32:52.364Z,96734.09
2023-05-19T19:35:22.856Z,96740.75
2023-05-19T19:37:52.566Z,96732.44
2023-05-19T19:40:21.661Z,96736.03
2023-05-19T19:42:50.757Z,96739.22
2023-05-19T19:45:21.193Z,96738.88
2023-05-19T19:47:52.189Z,96742.00
2023-05-19T19:54:41.212Z,96747.50
2023-05-19T19:57:10.296Z,96743.63
2023-05-19T20:03:58.349Z,96747.38
2023-05-19T20:06:27.768Z,96751.69
2023-05-19T20:12:33.352Z,96754.72
2023-05-19T20:19:28.634Z,96752.06
2023-05-19T20:21:58.072Z,96756.38
2023-05-19T20:28:54.220Z,96752.72
2023-05-19T20:35:36.852Z,96749.81
2023-05-19T20:38:06.050Z,96749.09
2023-05-19T20:44:50.014Z,96748.28
2023-05-19T20:47:20.038Z,96752.50
2023-05-19T20:53:56.015Z,96751.50
2023-05-19T21:00:58.058Z,96748.50
2023-05-19T21:03:27.609Z,96750.09
2023-05-19T21:05:56.611Z,96749.66
2023-05-19T21:08:26.012Z,96754.44
2023-05-19T21:15:08.336Z,96755.78
2023-05-19T21:17:38.775Z,96752.34
2023-05-19T21:20:09.409Z,96755.97
2023-05-19T21:22:38.589Z,96748.25
2023-05-19T21:25:08.902Z,96752.56
2023-05-19T21:27:39.648Z,96761.53
2023-05-19T21:30:10.172Z,96763.00
2023-05-19T21:32:40.855Z,96758.69
2023-05-19T21:35:10.714Z,96769.38
2023-05-19T21:37:39.891Z,96760.56
2023-05-19T21:40:10.653Z,96761.94
2023-05-19T21:42:39.839Z,96760.81
2023-05-19T21:45:10.279Z,96747.78
2023-05-19T21:47:43.085Z,96744.31
2023-05-19T21:50:16.648Z,96750.34
2023-05-19T21:57:04.815Z,96750.13
2023-05-19T21:59:33.702Z,96744.69
2023-05-19T22:10:42.368Z,96721.44
2023-05-19T22:17:23.879Z,96723.19
2023-05-19T22:19:53.177Z,96714.41
2023-05-19T22:26:36.772Z,96730.44
2023-05-19T22:29:06.238Z,96723.56
2023-05-19T22:35:55.121Z,96710.81
2023-05-19T22:42:45.538Z,96715.47
2023-05-19T22:45:14.630Z,96716.88
2023-05-19T22:52:01.770Z,96712.09
2023-05-19T22:54:31.376Z,96712.78
2023-05-19T23:01:31.693Z,96709.75
2023-05-19T23:13:03.853Z,96692.66
2023-05-19T23:15:33.409Z,96685.47
2023-05-19T23:22:17.650Z,96677.31
2023-05-19T23:24:46.840Z,96670.47
2023-05-19T23:27:15.921Z,96662.47
2023-05-19T23:29:49.515Z,96654.97
2023-05-19T23:32:18.713Z,96666.88
2023-05-19T23:34:49.033Z,96667.03
2023-05-19T23:37:19.667Z,96676.94
2023-05-19T23:39:48.964Z,96669.09
2023-05-19T23:42:18.364Z,96673.25
2023-05-19T23:44:47.565Z,96676.16
2023-05-19T23:47:16.849Z,96677.25
2023-05-19T23:49:46.168Z,96682.56
2023-05-19T23:52:15.569Z,96681.28
2023-05-19T23:54:46.198Z,96673.41
2023-05-19T23:57:15.395Z,96673.59
2023-05-19T23:59:44.709Z,96677.44
